createdAt,value
2023-03-04T00:01:26.605Z,1.02
2023-03-04T00:03:58.977Z,1.02
2023-03-04T00:06:30.388Z,1.17
2023-03-04T00:09:09.427Z,1.10
2023-03-04T00:11:39.044Z,1.13
2023-03-04T00:14:09.331Z,1.02
2023-03-04T00:16:39.925Z,1.00
2023-03-04T00:19:15.773Z,1.20
2023-03-04T00:21:44.784Z,1.10
2023-03-04T00:24:15.520Z,0.90
2023-03-04T00:26:50.237Z,1.10
2023-03-04T00:29:22.413Z,1.10
2023-03-04T00:32:01.982Z,0.90
2023-03-04T00:34:33.516Z,1.17
2023-03-04T00:37:04.666Z,1.20
2023-03-04T00:39:36.366Z,1.10
2023-03-04T00:42:14.900Z,1.20
2023-03-04T00:44:46.580Z,1.10
2023-03-04T00:47:18.105Z,1.05
2023-03-04T00:49:50.053Z,1.13
2023-03-04T00:52:17.631Z,1.10
2023-03-04T00:54:47.783Z,0.90
2023-03-04T00:57:24.083Z,0.98
2023-03-04T01:00:01.032Z,1.10
2023-03-04T01:02:33.820Z,1.10
2023-03-04T01:05:14.553Z,0.88
2023-03-04T01:07:46.257Z,1.20
2023-03-04T01:10:17.341Z,1.17
2023-03-04T01:12:50.087Z,1.00
2023-03-04T01:15:25.169Z,1.00
2023-03-04T01:17:56.209Z,1.10
2023-03-04T01:20:30.383Z,1.25
2023-03-04T01:22:56.418Z,1.00
2023-03-04T01:25:28.584Z,1.15
2023-03-04T01:28:00.028Z,1.00
2023-03-04T01:30:26.084Z,0.93
2023-03-04T01:33:00.992Z,1.10
2023-03-04T01:35:41.539Z,1.08
2023-03-04T01:38:23.134Z,1.27
2023-03-04T01:41:09.515Z,1.13
2023-03-04T01:43:42.330Z,1.13
2023-03-04T01:46:18.766Z,1.20
2023-03-04T01:48:55.486Z,1.08
2023-03-04T01:51:27.513Z,1.17
2023-03-04T01:54:06.923Z,1.15
2023-03-04T01:56:49.013Z,1.10
2023-03-04T01:59:52.674Z,1.10
2023-03-04T02:02:26.389Z,1.13
2023-03-04T02:05:01.197Z,1.17
2023-03-04T02:07:37.350Z,1.27
2023-03-04T02:10:29.345Z,1.15
2023-03-04T02:12:59.075Z,1.20
2023-03-04T02:15:34.129Z,1.00
2023-03-04T02:18:21.775Z,1.40
2023-03-04T02:21:00.949Z,1.17
2023-03-04T02:24:02.688Z,1.50
2023-03-04T02:27:04.055Z,1.33
2023-03-04T02:29:32.050Z,1.38
2023-03-04T02:31:58.342Z,1.15
2023-03-04T02:34:31.674Z,1.25
2023-03-04T02:37:03.590Z,1.27
2023-03-04T02:39:50.977Z,1.23
2023-03-04T02:42:28.603Z,1.25
2023-03-04T02:45:02.694Z,1.45
2023-03-04T02:47:35.987Z,1.30
2023-03-04T02:50:14.430Z,1.05
2023-03-04T02:52:45.097Z,1.30
2023-03-04T02:55:12.679Z,1.40
2023-03-04T02:57:38.791Z,1.30
2023-03-04T03:00:15.741Z,1.20
2023-03-04T03:02:41.802Z,1.20
2023-03-04T03:05:13.720Z,1.20
2023-03-04T03:07:49.807Z,1.40
2023-03-04T03:10:38.365Z,1.05
2023-03-04T03:13:11.955Z,1.10
2023-03-04T03:15:41.937Z,1.52
2023-03-04T03:18:10.240Z,1.30
2023-03-04T03:20:41.346Z,1.15
2023-03-04T03:23:25.160Z,1.27
2023-03-04T03:25:56.021Z,1.08
2023-03-04T03:28:27.467Z,1.27
2023-03-04T03:31:02.659Z,1.10
2023-03-04T03:33:41.055Z,1.08
2023-03-04T03:36:10.731Z,1.00
2023-03-04T03:38:40.850Z,0.90
2023-03-04T03:41:16.544Z,1.30
2023-03-04T03:43:47.781Z,0.98
2023-03-04T03:46:15.053Z,1.15
2023-03-04T03:48:45.411Z,0.90
2023-03-04T03:51:35.109Z,1.15
2023-03-04T03:54:09.955Z,1.08
2023-03-04T03:56:38.683Z,0.98
2023-03-04T03:59:11.416Z,1.10
2023-03-04T04:01:44.417Z,1.15
2023-03-04T04:04:21.748Z,0.90
2023-03-04T04:07:10.779Z,1.10
2023-03-04T04:09:59.667Z,1.10
2023-03-04T04:12:31.742Z,0.90
2023-03-04T04:15:05.191Z,0.95
2023-03-04T04:17:37.910Z,1.13
2023-03-04T04:20:13.850Z,0.90
2023-03-04T04:22:44.904Z,0.90
2023-03-04T04:25:16.422Z,1.00
2023-03-04T04:27:50.364Z,0.88
2023-03-04T04:30:28.419Z,0.77
2023-03-04T04:35:45.945Z,0.80
2023-03-04T04:38:17.124Z,0.90
2023-03-04T04:40:49.389Z,0.80
2023-03-04T04:43:27.721Z,0.90
2023-03-04T04:46:06.947Z,0.80
2023-03-04T04:48:38.944Z,0.75
2023-03-04T04:51:10.394Z,0.90
2023-03-04T04:53:42.049Z,0.68
2023-03-04T04:56:22.349Z,0.90
2023-03-04T04:59:09.255Z,0.85
2023-03-04T05:01:46.447Z,0.70
2023-03-04T05:04:18.123Z,0.85
2023-03-04T05:06:49.999Z,0.70
2023-03-04T05:09:28.358Z,0.55
2023-03-04T05:11:54.529Z,0.70
2023-03-04T05:14:24.752Z,0.68
2023-03-04T05:16:55.821Z,0.90
2023-03-04T05:19:34.574Z,0.73
2023-03-04T05:22:13.299Z,0.70
2023-03-04T05:24:48.250Z,0.73
2023-03-04T05:27:20.536Z,0.50
2023-03-04T05:29:48.971Z,0.60
2023-03-04T05:32:15.056Z,0.60
2023-03-04T05:34:48.245Z,0.60
2023-03-04T05:37:21.400Z,0.80
2023-03-04T05:40:02.422Z,0.70
2023-03-04T05:42:32.564Z,0.60
2023-03-04T05:45:12.025Z,0.52
2023-03-04T05:47:40.900Z,0.50
2023-03-04T05:50:16.257Z,0.50
2023-03-04T05:52:48.804Z,0.52
2023-03-04T05:55:34.748Z,0.40
2023-03-04T05:58:13.471Z,0.55
2023-03-04T06:00:54.789Z,0.85
2023-03-04T06:03:25.323Z,0.50
2023-03-04T06:06:07.926Z,0.57
2023-03-04T06:08:49.848Z,0.50
2023-03-04T06:11:18.111Z,0.50
2023-03-04T06:13:57.105Z,0.60
2023-03-04T06:16:23.388Z,0.50
2023-03-04T06:18:56.220Z,0.60
2023-03-04T06:21:24.895Z,0.60
2023-03-04T06:24:07.243Z,0.45
2023-03-04T06:26:38.945Z,0.70
2023-03-04T06:29:16.401Z,0.57
2023-03-04T06:31:56.186Z,0.47
2023-03-04T06:34:41.977Z,0.50
2023-03-04T06:37:09.087Z,0.45
2023-03-04T06:39:46.080Z,0.55
2023-03-04T06:42:24.698Z,0.55
2023-03-04T06:44:56.783Z,0.40
2023-03-04T06:47:39.241Z,0.63
2023-03-04T06:50:37.115Z,0.52
2023-03-04T06:53:09.985Z,0.43
2023-03-04T06:55:56.291Z,0.40
2023-03-04T06:58:50.457Z,0.40
2023-03-04T07:01:28.232Z,0.50
2023-03-04T07:04:03.821Z,0.50
2023-03-04T07:06:57.443Z,0.30
2023-03-04T07:09:29.325Z,0.40
2023-03-04T07:11:59.831Z,0.50
2023-03-04T07:14:33.868Z,0.60
2023-03-04T07:20:04.013Z,0.43
2023-03-04T07:22:53.547Z,0.50
2023-03-04T07:25:25.924Z,0.50
2023-03-04T07:27:59.756Z,0.40
2023-03-04T07:30:32.529Z,0.40
2023-03-04T07:32:58.626Z,0.57
2023-03-04T07:35:30.356Z,0.45
2023-03-04T07:38:00.645Z,0.43
2023-03-04T07:40:31.684Z,0.40
2023-03-04T07:43:02.991Z,0.40
2023-03-04T07:45:36.124Z,0.43
2023-03-04T07:48:06.345Z,0.40
2023-03-04T07:50:36.563Z,0.47
2023-03-04T07:53:06.960Z,0.47
2023-03-04T07:55:36.430Z,0.55
2023-03-04T07:58:20.288Z,0.38
2023-03-04T08:00:47.415Z,0.50
2023-03-04T08:03:22.906Z,0.35
2023-03-04T08:06:05.723Z,0.60
2023-03-04T08:08:36.028Z,0.40
2023-03-04T08:11:16.412Z,0.50
2023-03-04T08:13:42.792Z,0.40
2023-03-04T08:16:22.853Z,0.60
2023-03-04T08:19:01.231Z,0.43
2023-03-04T08:21:34.315Z,0.70
2023-03-04T08:24:12.965Z,0.68
2023-03-04T08:27:03.300Z,0.52
2023-03-04T08:29:38.749Z,0.63
2023-03-04T08:32:12.254Z,0.50
2023-03-04T08:34:42.995Z,0.55
2023-03-04T08:37:25.326Z,0.60
2023-03-04T08:39:51.372Z,0.40
2023-03-04T08:42:27.711Z,0.60
2023-03-04T08:44:55.832Z,0.70
2023-03-04T08:50:15.321Z,0.50
2023-03-04T08:52:42.796Z,0.60
2023-03-04T08:55:12.844Z,0.50
2023-03-04T09:00:26.681Z,0.50
2023-03-04T09:03:02.502Z,0.60
2023-03-04T09:05:56.080Z,0.50
2023-03-04T09:08:49.241Z,0.50
2023-03-04T09:11:17.164Z,0.55
2023-03-04T09:13:47.791Z,0.43
2023-03-04T09:16:43.080Z,0.55
2023-03-04T09:19:13.785Z,0.50
2023-03-04T09:21:39.839Z,0.60
2023-03-04T09:24:12.719Z,0.55
2023-03-04T09:27:16.280Z,0.60
2023-03-04T09:29:43.829Z,0.60
2023-03-04T09:32:17.283Z,0.40
2023-03-04T09:34:49.029Z,0.60
2023-03-04T09:37:20.629Z,0.40
2023-03-04T09:39:52.654Z,0.50
2023-03-04T09:42:47.367Z,0.52
2023-03-04T09:45:28.587Z,0.40
2023-03-04T09:47:55.833Z,0.35
2023-03-04T09:50:22.619Z,0.45
2023-03-04T09:53:33.222Z,0.40
2023-03-04T09:56:13.689Z,0.40
2023-03-04T09:59:13.095Z,0.50
2023-03-04T10:02:30.631Z,0.68
2023-03-04T10:05:02.845Z,0.43
2023-03-04T10:07:43.487Z,0.50
2023-03-04T10:10:28.766Z,0.50
2023-03-04T10:12:57.706Z,0.57
2023-03-04T10:15:37.359Z,0.50
2023-03-04T10:18:41.395Z,0.52
2023-03-04T10:21:48.562Z,0.50
2023-03-04T10:24:26.717Z,0.47
2023-03-04T10:27:17.360Z,0.55
2023-03-04T10:29:59.610Z,0.60
2023-03-04T10:32:34.580Z,0.50
2023-03-04T10:35:23.412Z,0.50
2023-03-04T10:38:31.956Z,0.50
2023-03-04T10:40:58.800Z,0.50
2023-03-04T10:43:29.694Z,0.40
2023-03-04T10:46:10.354Z,0.50
2023-03-04T10:48:49.358Z,0.40
2023-03-04T10:51:44.610Z,0.52
2023-03-04T10:54:37.570Z,0.40
2023-03-04T10:57:12.705Z,0.50
2023-03-04T10:59:54.408Z,0.35
2023-03-04T11:02:38.239Z,0.50
2023-03-04T11:05:26.933Z,0.50
2023-03-04T11:07:57.239Z,0.60
2023-03-04T11:10:37.465Z,0.60
2023-03-04T11:13:40.295Z,0.60
2023-03-04T11:16:29.044Z,0.50
2023-03-04T11:19:23.494Z,0.45
2023-03-04T11:22:17.256Z,0.65
2023-03-04T11:25:01.200Z,0.40
2023-03-04T11:27:52.159Z,0.40
2023-03-04T11:31:02.313Z,0.50
2023-03-04T11:34:03.994Z,0.50
2023-03-04T11:37:19.075Z,0.60
2023-03-04T11:40:00.375Z,0.40
2023-03-04T11:43:44.761Z,0.50
2023-03-04T11:46:45.995Z,0.50
2023-03-04T11:49:28.591Z,0.30
2023-03-04T11:52:25.055Z,0.50
2023-03-04T11:55:43.961Z,0.40
2023-03-04T11:58:44.845Z,0.60
2023-03-04T12:02:20.375Z,0.57
2023-03-04T12:05:15.331Z,0.35
2023-03-04T12:07:54.620Z,0.50
2023-03-04T12:11:08.524Z,0.50
2023-03-04T12:13:42.295Z,0.60
2023-03-04T12:16:35.918Z,0.50
2023-03-04T12:19:38.709Z,0.60
2023-03-04T12:22:27.108Z,0.73
2023-03-04T12:25:33.596Z,0.60
2023-03-04T12:28:01.721Z,0.50
2023-03-04T12:30:51.804Z,0.50
2023-03-04T12:33:46.206Z,0.60
2023-03-04T12:36:36.882Z,0.55
2023-03-04T12:39:42.221Z,0.40
2023-03-04T12:42:57.887Z,0.50
2023-03-04T12:46:01.859Z,0.50
2023-03-04T12:49:03.137Z,0.50
2023-03-04T12:51:55.337Z,0.60
2023-03-04T12:54:50.298Z,0.50
2023-03-04T12:57:41.698Z,0.60
2023-03-04T13:00:40.416Z,0.52
2023-03-04T13:03:26.918Z,0.55
2023-03-04T13:06:13.641Z,0.57
2023-03-04T13:09:03.129Z,0.70
2023-03-04T13:11:32.775Z,0.77
2023-03-04T13:14:26.205Z,0.50
2023-03-04T13:17:22.051Z,0.43
2023-03-04T13:20:29.001Z,0.60
2023-03-04T13:23:08.929Z,0.50
2023-03-04T13:26:17.638Z,0.47
2023-03-04T13:29:13.062Z,0.50
2023-03-04T13:32:11.527Z,0.63
2023-03-04T13:34:47.687Z,0.50
2023-03-04T13:37:37.005Z,0.40
2023-03-04T13:40:36.614Z,0.60
2023-03-04T13:43:46.640Z,0.50
2023-03-04T13:46:25.334Z,0.60
2023-03-04T13:48:55.973Z,0.50
2023-03-04T13:51:44.284Z,0.60
2023-03-04T13:54:31.769Z,0.50
2023-03-04T13:57:11.320Z,0.50
2023-03-04T13:59:57.651Z,0.60
2023-03-04T14:02:33.272Z,0.55
2023-03-04T14:05:13.638Z,0.52
2023-03-04T14:07:40.877Z,0.68
2023-03-04T14:10:28.279Z,0.63
2023-03-04T14:12:57.420Z,0.60
2023-03-04T14:15:30.374Z,0.50
2023-03-04T14:18:01.226Z,0.70
2023-03-04T14:20:35.287Z,0.75
2023-03-04T14:23:37.859Z,0.57
2023-03-04T14:26:16.072Z,0.52
2023-03-04T14:29:02.293Z,0.65
2023-03-04T14:31:35.976Z,0.82
2023-03-04T14:34:04.256Z,0.73
2023-03-04T14:36:47.161Z,0.80
2023-03-04T14:39:16.841Z,0.70
2023-03-04T14:41:48.417Z,0.68
2023-03-04T14:44:41.225Z,0.60
2023-03-04T14:47:10.317Z,0.52
2023-03-04T14:49:43.609Z,0.50
2023-03-04T14:52:41.274Z,0.55
2023-03-04T14:55:21.649Z,0.50
2023-03-04T14:57:57.553Z,0.75
2023-03-04T15:01:05.690Z,0.63
2023-03-04T15:03:37.978Z,0.90
2023-03-04T15:06:32.179Z,0.70
2023-03-04T15:09:22.953Z,0.60
2023-03-04T15:12:09.651Z,0.80
2023-03-04T15:14:51.450Z,0.63
2023-03-04T15:18:02.476Z,0.75
2023-03-04T15:20:31.510Z,0.50
2023-03-04T15:23:09.277Z,0.75
2023-03-04T15:25:39.007Z,0.60
2023-03-04T15:28:18.802Z,0.70
2023-03-04T15:30:46.717Z,0.65
2023-03-04T15:33:28.663Z,0.50
2023-03-04T15:36:01.628Z,0.82
2023-03-04T15:38:36.830Z,0.70
2023-03-04T15:41:10.729Z,0.63
2023-03-04T15:44:04.310Z,0.80
2023-03-04T15:46:30.472Z,0.68
2023-03-04T15:49:01.255Z,0.50
2023-03-04T15:51:29.966Z,0.60
2023-03-04T15:54:01.000Z,0.70
2023-03-04T15:56:42.677Z,0.85
2023-03-04T15:59:18.758Z,0.80
2023-03-04T16:01:45.908Z,0.75
2023-03-04T16:04:24.824Z,0.80
2023-03-04T16:07:02.045Z,0.70
2023-03-04T16:09:32.527Z,0.75
2023-03-04T16:12:07.185Z,0.80
2023-03-04T16:14:37.690Z,0.70
2023-03-04T16:17:03.804Z,0.70
2023-03-04T16:19:32.014Z,0.85
2023-03-04T16:22:05.637Z,0.60
2023-03-04T16:24:47.267Z,0.50
2023-03-04T16:27:35.405Z,0.63
2023-03-04T16:30:10.488Z,0.80
2023-03-04T16:32:38.967Z,0.80
2023-03-04T16:35:13.507Z,0.60
2023-03-04T16:37:52.719Z,0.60
2023-03-04T16:40:36.636Z,0.55
2023-03-04T16:43:10.589Z,0.60
2023-03-04T16:45:42.832Z,0.70
2023-03-04T16:48:21.462Z,0.60
2023-03-04T16:50:53.139Z,0.60
2023-03-04T16:53:39.832Z,0.60
2023-03-04T16:56:32.607Z,0.70
2023-03-04T16:59:03.488Z,0.65
2023-03-04T17:01:43.504Z,0.85
2023-03-04T17:04:31.925Z,0.60
2023-03-04T17:07:03.919Z,0.50
2023-03-04T17:09:29.971Z,0.80
2023-03-04T17:12:08.695Z,0.70
2023-03-04T17:14:35.266Z,0.55
2023-03-04T17:20:02.882Z,0.50
2023-03-04T17:22:30.036Z,0.50
2023-03-04T17:25:02.511Z,0.55
2023-03-04T17:27:29.569Z,0.57
2023-03-04T17:30:11.649Z,0.70
2023-03-04T17:32:45.144Z,0.60
2023-03-04T17:35:18.868Z,0.60
2023-03-04T17:37:51.777Z,0.45
2023-03-04T17:40:20.448Z,0.40
2023-03-04T17:42:52.263Z,0.43
2023-03-04T17:45:34.248Z,0.60
2023-03-04T17:48:20.995Z,0.50
2023-03-04T17:51:00.156Z,0.70
2023-03-04T17:56:18.667Z,0.60
2023-03-04T17:58:50.024Z,0.60
2023-03-04T18:01:24.993Z,0.50
2023-03-04T18:04:07.790Z,0.60
2023-03-04T18:06:38.339Z,0.55
2023-03-04T18:09:18.796Z,0.60
2023-03-04T18:12:02.531Z,0.60
2023-03-04T18:14:31.303Z,0.50
2023-03-04T18:17:07.106Z,0.50
2023-03-04T18:19:37.000Z,0.60
2023-03-04T18:22:22.751Z,0.65
2023-03-04T18:24:49.557Z,0.50
2023-03-04T18:27:21.754Z,0.60
2023-03-04T18:29:56.742Z,0.60
2023-03-04T18:32:28.384Z,0.60
2023-03-04T18:34:58.044Z,0.40
2023-03-04T18:37:27.231Z,0.50
2023-03-04T18:39:57.467Z,0.70
2023-03-04T18:42:25.532Z,0.57
2023-03-04T18:44:57.903Z,0.60
2023-03-04T18:47:29.005Z,0.70
2023-03-04T18:49:57.245Z,0.65
2023-03-04T18:52:30.299Z,0.60
2023-03-04T18:55:00.060Z,0.65
2023-03-04T18:57:29.000Z,0.60
2023-03-04T18:59:58.664Z,0.60
2023-03-04T19:03:08.730Z,0.68
2023-03-04T19:05:35.941Z,0.90
2023-03-04T19:08:10.811Z,0.75
2023-03-04T19:10:38.792Z,0.60
2023-03-04T19:13:05.042Z,0.68
2023-03-04T19:15:55.560Z,0.70
2023-03-04T19:18:28.389Z,0.50
2023-03-04T19:21:05.314Z,0.63
2023-03-04T19:23:34.921Z,0.63
2023-03-04T19:26:07.245Z,0.60
2023-03-04T19:28:48.104Z,0.60
2023-03-04T19:31:21.138Z,0.70
2023-03-04T19:33:47.240Z,0.50
2023-03-04T19:36:13.308Z,0.70
2023-03-04T19:38:40.472Z,0.68
2023-03-04T19:41:35.567Z,0.70
2023-03-04T19:44:06.620Z,0.60
2023-03-04T19:46:38.032Z,0.70
2023-03-04T19:49:09.850Z,0.80
2023-03-04T19:51:38.245Z,0.70
2023-03-04T19:54:22.014Z,0.57
2023-03-04T19:56:48.130Z,0.73
2023-03-04T19:59:29.723Z,0.60
2023-03-04T20:02:00.536Z,0.90
2023-03-04T20:04:32.039Z,0.90
2023-03-04T20:09:54.451Z,0.57
2023-03-04T20:12:20.507Z,0.70
2023-03-04T20:14:58.673Z,0.90
2023-03-04T20:17:26.534Z,0.60
2023-03-04T20:19:52.588Z,0.93
2023-03-04T20:22:21.438Z,0.73
2023-03-04T20:24:47.504Z,0.80
2023-03-04T20:27:19.878Z,0.90
2023-03-04T20:29:51.921Z,0.90
2023-03-04T20:32:32.925Z,0.82
2023-03-04T20:35:17.306Z,0.90
2023-03-04T20:37:49.264Z,0.93
2023-03-04T20:40:51.499Z,0.90
2023-03-04T20:43:47.114Z,0.73
2023-03-04T20:46:46.973Z,0.90
2023-03-04T20:49:23.344Z,0.80
2023-03-04T20:52:05.832Z,0.80
2023-03-04T20:54:34.788Z,0.75
2023-03-04T20:57:16.150Z,0.90
2023-03-04T20:59:55.718Z,0.90
2023-03-04T21:02:22.775Z,1.00
2023-03-04T21:04:56.808Z,1.10
2023-03-04T21:07:25.613Z,0.80
2023-03-04T21:09:54.684Z,1.02
2023-03-04T21:12:27.610Z,0.90
2023-03-04T21:15:00.804Z,1.00
2023-03-04T21:17:32.368Z,1.08
2023-03-04T21:20:00.119Z,0.90
2023-03-04T21:22:26.357Z,1.20
2023-03-04T21:24:58.402Z,1.10
2023-03-04T21:27:42.339Z,1.00
2023-03-04T21:30:13.962Z,0.90
2023-03-04T21:32:51.317Z,1.17
2023-03-04T21:35:20.105Z,1.13
2023-03-04T21:37:52.608Z,0.80
2023-03-04T21:40:21.647Z,0.90
2023-03-04T21:42:52.942Z,0.68
2023-03-04T21:45:28.091Z,1.10
2023-03-04T21:48:02.304Z,1.10
2023-03-04T21:50:28.472Z,1.23
2023-03-04T21:52:54.573Z,0.93
2023-03-04T21:55:20.645Z,1.17
2023-03-04T21:58:07.284Z,1.10
2023-03-04T22:00:37.215Z,0.95
2023-03-04T22:03:09.242Z,1.10
2023-03-04T22:05:44.808Z,1.10
2023-03-04T22:08:12.150Z,0.95
2023-03-04T22:10:43.346Z,1.23
2023-03-04T22:13:32.742Z,1.02
2023-03-04T22:15:59.480Z,1.10
2023-03-04T22:18:40.107Z,1.30
2023-03-04T22:21:12.687Z,1.02
2023-03-04T22:23:44.111Z,1.10
2023-03-04T22:26:17.829Z,1.10
2023-03-04T22:28:47.056Z,1.00
2023-03-04T22:31:33.930Z,1.10
2023-03-04T22:34:08.212Z,1.30
2023-03-04T22:36:39.698Z,1.27
2023-03-04T22:39:09.772Z,1.10
2023-03-04T22:41:39.700Z,1.00
2023-03-04T22:44:07.008Z,1.27
2023-03-04T22:46:49.283Z,1.10
2023-03-04T22:49:31.834Z,1.02
2023-03-04T22:51:57.929Z,1.15
2023-03-04T22:54:35.610Z,1.20
2023-03-04T22:57:06.792Z,0.98
2023-03-04T22:59:49.019Z,1.10
2023-03-04T23:02:20.228Z,1.13
2023-03-04T23:04:57.067Z,1.05
2023-03-04T23:07:36.019Z,1.15
2023-03-04T23:10:20.988Z,1.10
2023-03-04T23:12:47.067Z,1.08
2023-03-04T23:15:35.576Z,1.25
2023-03-04T23:18:07.712Z,1.38
2023-03-04T23:20:46.378Z,1.10
2023-03-04T23:23:19.939Z,1.10
2023-03-04T23:25:51.623Z,1.00
2023-03-04T23:28:24.787Z,1.02
2023-03-04T23:30:58.664Z,1.23
2023-03-04T23:33:27.040Z,1.20
2023-03-04T23:35:55.590Z,1.02
2023-03-04T23:38:32.668Z,1.40
2023-03-04T23:41:08.564Z,1.20
2023-03-04T23:43:48.567Z,1.10
2023-03-04T23:46:22.014Z,1.20
2023-03-04T23:49:09.353Z,1.10
2023-03-04T23:51:47.781Z,1.20
2023-03-04T23:54:19.008Z,1.02
2023-03-04T23:56:52.417Z,1.17
2023-03-04T23:59:19.699Z,0.88
